createdAt,value
2018-03-20T00:00:39.245Z,82.45
2018-03-20T00:03:07.694Z,82.70
2018-03-20T00:05:36.080Z,82.60
2018-03-20T00:08:04.496Z,82.81
2018-03-20T00:10:32.892Z,82.86
2018-03-20T00:13:01.301Z,82.86
2018-03-20T00:15:29.708Z,82.69
2018-03-20T00:17:58.112Z,82.45
2018-03-20T00:20:26.514Z,82.87
2018-03-20T00:22:54.892Z,82.80
2018-03-20T00:25:23.374Z,82.98
2018-03-20T00:27:51.740Z,83.13
2018-03-20T00:30:20.238Z,83.14
2018-03-20T00:32:48.667Z,83.58
2018-03-20T00:35:17.073Z,83.51
2018-03-20T00:37:45.469Z,83.52
2018-03-20T00:40:13.912Z,84.23
2018-03-20T00:42:42.317Z,84.65
2018-03-20T00:45:10.720Z,85.23
2018-03-20T00:47:39.135Z,85.51
2018-03-20T00:50:07.532Z,85.32
2018-03-20T00:52:35.976Z,85.38
2018-03-20T00:55:04.417Z,85.21
2018-03-20T00:57:32.806Z,85.08
2018-03-20T01:00:01.224Z,84.89
2018-03-20T01:02:29.625Z,85.17
2018-03-20T01:04:58.024Z,85.50
2018-03-20T01:07:26.465Z,85.36
2018-03-20T01:09:54.893Z,85.23
2018-03-20T01:12:23.299Z,84.44
2018-03-20T01:14:51.742Z,84.28
2018-03-20T01:17:20.268Z,84.34
2018-03-20T01:19:48.704Z,84.36
2018-03-20T01:22:17.128Z,83.95
2018-03-20T01:24:45.536Z,84.14
2018-03-20T01:27:14.069Z,84.17
2018-03-20T01:29:42.456Z,84.21
2018-03-20T01:32:10.821Z,84.57
2018-03-20T01:34:39.227Z,84.56
2018-03-20T01:37:07.633Z,84.26
2018-03-20T01:39:36.012Z,83.47
2018-03-20T01:42:04.442Z,83.96
2018-03-20T01:44:32.912Z,83.83
2018-03-20T01:47:01.290Z,82.67
2018-03-20T01:49:29.765Z,82.28
2018-03-20T01:51:58.165Z,82.48
2018-03-20T01:54:26.552Z,81.90
2018-03-20T01:56:54.974Z,81.54
2018-03-20T01:59:23.340Z,81.95
2018-03-20T02:01:51.764Z,80.99
2018-03-20T02:04:20.143Z,80.65
2018-03-20T02:06:48.589Z,80.50
2018-03-20T02:09:17.004Z,80.42
2018-03-20T02:11:45.365Z,81.06
2018-03-20T02:14:13.783Z,81.52
2018-03-20T02:16:42.149Z,82.08
2018-03-20T02:19:10.692Z,82.90
2018-03-20T02:21:39.259Z,82.94
2018-03-20T02:24:07.652Z,82.07
2018-03-20T02:26:36.380Z,80.40
2018-03-20T02:29:04.736Z,79.86
2018-03-20T02:31:33.200Z,79.66
2018-03-20T02:34:01.624Z,79.64
2018-03-20T02:36:30.030Z,79.51
2018-03-20T02:38:58.407Z,79.70
2018-03-20T02:41:26.837Z,80.16
2018-03-20T02:43:55.387Z,80.87
2018-03-20T02:46:23.800Z,81.02
2018-03-20T02:48:52.268Z,81.22
2018-03-20T02:51:20.674Z,80.65
2018-03-20T02:53:49.116Z,80.61
2018-03-20T02:56:17.472Z,79.77
2018-03-20T02:58:45.855Z,79.92
2018-03-20T03:01:14.313Z,79.89
2018-03-20T03:03:42.756Z,79.61
2018-03-20T03:06:11.200Z,79.70
2018-03-20T03:08:39.621Z,79.81
2018-03-20T03:11:08.030Z,79.85
2018-03-20T03:13:36.422Z,79.68
2018-03-20T03:16:04.840Z,79.24
2018-03-20T03:18:33.257Z,79.79
2018-03-20T03:21:04.029Z,80.01
2018-03-20T03:23:32.384Z,80.13
2018-03-20T03:26:00.752Z,79.86
2018-03-20T03:28:29.161Z,79.87
2018-03-20T03:30:57.569Z,79.73
2018-03-20T03:33:25.956Z,79.76
2018-03-20T03:35:54.356Z,80.07
2018-03-20T03:38:24.115Z,80.11
2018-03-20T03:40:52.633Z,80.15
2018-03-20T03:43:21.251Z,80.45
2018-03-20T03:45:49.712Z,80.91
2018-03-20T03:48:18.140Z,80.45
2018-03-20T03:50:46.628Z,80.00
2018-03-20T03:53:14.976Z,80.32
2018-03-20T03:55:43.407Z,80.42
2018-03-20T03:58:11.854Z,80.24
2018-03-20T04:00:40.276Z,80.10
2018-03-20T04:03:08.716Z,80.17
2018-03-20T04:05:37.072Z,81.46
2018-03-20T04:08:05.496Z,81.13
2018-03-20T04:10:33.932Z,80.06
2018-03-20T04:13:02.346Z,80.24
2018-03-20T04:15:30.788Z,80.52
2018-03-20T04:17:59.207Z,80.23
2018-03-20T04:20:27.672Z,80.26
2018-03-20T04:22:56.132Z,80.45
2018-03-20T04:25:24.592Z,81.33
2018-03-20T04:27:53.005Z,81.89
2018-03-20T04:30:21.436Z,81.96
2018-03-20T04:32:49.889Z,81.57
2018-03-20T04:35:18.262Z,81.34
2018-03-20T04:37:46.681Z,81.55
2018-03-20T04:40:15.104Z,82.20
2018-03-20T04:42:43.573Z,83.01
2018-03-20T04:45:11.972Z,84.36
2018-03-20T04:47:40.381Z,85.11
2018-03-20T04:50:08.778Z,85.22
2018-03-20T04:52:37.185Z,85.78
2018-03-20T04:55:05.765Z,85.91
2018-03-20T04:57:34.185Z,86.08
2018-03-20T05:00:02.671Z,86.25
2018-03-20T05:02:31.121Z,86.04
2018-03-20T05:04:59.555Z,86.07
2018-03-20T05:07:27.965Z,86.05
2018-03-20T05:09:56.326Z,86.07
2018-03-20T05:12:24.729Z,85.98
2018-03-20T05:14:53.144Z,86.02
2018-03-20T05:17:21.597Z,86.10
2018-03-20T05:19:53.549Z,85.69
2018-03-20T05:25:27.463Z,83.88
2018-03-20T05:27:55.883Z,83.05
2018-03-20T05:30:24.388Z,82.72
2018-03-20T05:32:52.834Z,82.24
2018-03-20T05:35:21.280Z,81.54
2018-03-20T05:37:49.639Z,81.73
2018-03-20T05:40:18.097Z,81.68
2018-03-20T05:42:46.712Z,82.17
2018-03-20T05:45:15.091Z,81.97
2018-03-20T05:50:48.468Z,81.76
2018-03-20T05:53:16.967Z,81.79
2018-03-20T05:55:45.484Z,80.92
2018-03-20T05:58:13.852Z,80.57
2018-03-20T06:00:42.220Z,80.97
2018-03-20T06:03:10.663Z,80.02
2018-03-20T06:05:39.124Z,79.45
2018-03-20T06:08:07.552Z,79.27
2018-03-20T06:10:35.977Z,79.76
2018-03-20T06:13:04.423Z,79.84
2018-03-20T06:15:32.843Z,79.62
2018-03-20T06:18:01.217Z,78.99
2018-03-20T06:20:29.621Z,79.25
2018-03-20T06:22:58.004Z,79.24
2018-03-20T06:25:26.451Z,79.66
2018-03-20T06:27:54.962Z,78.94
2018-03-20T06:30:23.421Z,78.44
2018-03-20T06:32:51.848Z,79.16
2018-03-20T06:35:20.268Z,78.44
2018-03-20T06:37:48.658Z,78.98
2018-03-20T06:40:17.000Z,78.54
2018-03-20T06:42:45.426Z,78.18
2018-03-20T06:45:14.414Z,78.05
2018-03-20T06:47:42.803Z,78.07
2018-03-20T06:50:11.220Z,78.96
2018-03-20T06:52:39.679Z,79.11
2018-03-20T06:55:08.064Z,79.26
2018-03-20T06:57:36.485Z,79.72
2018-03-20T07:00:04.965Z,79.76
2018-03-20T07:02:33.398Z,78.79
2018-03-20T07:05:01.784Z,79.35
2018-03-20T07:07:30.161Z,79.57
2018-03-20T07:09:58.680Z,79.26
2018-03-20T07:12:27.054Z,79.35
2018-03-20T07:14:55.449Z,79.95
2018-03-20T07:17:23.972Z,79.58
2018-03-20T07:19:52.444Z,79.15
2018-03-20T07:22:20.872Z,78.83
2018-03-20T07:24:49.268Z,77.73
2018-03-20T07:27:17.785Z,76.36
2018-03-20T07:29:46.379Z,76.53
2018-03-20T07:32:14.936Z,76.19
2018-03-20T07:34:43.339Z,73.92
2018-03-20T07:37:11.697Z,73.79
2018-03-20T07:39:40.182Z,72.66
2018-03-20T07:42:08.573Z,70.95
2018-03-20T07:44:37.027Z,72.12
2018-03-20T07:47:05.401Z,69.96
2018-03-20T07:49:34.000Z,69.81
2018-03-20T07:52:02.456Z,67.63
2018-03-20T07:54:30.877Z,71.04
2018-03-20T07:56:59.287Z,71.08
2018-03-20T07:59:27.685Z,72.33
2018-03-20T08:01:56.049Z,72.51
2018-03-20T08:04:24.443Z,71.63
2018-03-20T08:06:52.814Z,72.88
2018-03-20T08:09:21.240Z,73.27
2018-03-20T08:11:49.688Z,73.42
2018-03-20T08:14:18.068Z,74.43
2018-03-20T08:16:46.499Z,74.83
2018-03-20T08:19:14.880Z,75.16
2018-03-20T08:21:43.315Z,74.54
2018-03-20T08:24:11.693Z,75.16
2018-03-20T08:26:40.069Z,75.47
2018-03-20T08:29:08.474Z,73.72
2018-03-20T08:31:36.975Z,71.70
2018-03-20T08:34:05.380Z,70.95
2018-03-20T08:36:33.750Z,71.84
2018-03-20T08:39:02.184Z,70.99
2018-03-20T08:41:30.573Z,70.20
2018-03-20T08:43:58.989Z,71.37
2018-03-20T08:46:27.384Z,70.64
2018-03-20T08:48:55.859Z,70.71
2018-03-20T08:51:24.252Z,71.11
2018-03-20T08:53:52.651Z,71.15
2018-03-20T08:56:21.053Z,71.74
2018-03-20T08:58:49.454Z,73.55
2018-03-20T09:01:17.880Z,73.52
2018-03-20T09:03:46.269Z,73.77
2018-03-20T09:06:14.687Z,75.14
2018-03-20T09:08:43.045Z,74.43
2018-03-20T09:11:11.440Z,75.47
2018-03-20T09:13:39.825Z,74.63
2018-03-20T09:16:08.177Z,72.69
2018-03-20T09:18:36.568Z,72.60
2018-03-20T09:21:05.170Z,70.69
2018-03-20T09:23:33.564Z,72.37
2018-03-20T09:26:01.937Z,70.82
2018-03-20T09:28:30.344Z,69.38
2018-03-20T09:30:58.702Z,69.92
2018-03-20T09:33:27.048Z,71.09
2018-03-20T09:35:55.444Z,70.68
2018-03-20T09:38:23.788Z,71.68
2018-03-20T09:40:52.201Z,69.81
2018-03-20T09:43:20.556Z,70.79
2018-03-20T09:45:48.972Z,70.87
2018-03-20T09:48:17.497Z,69.40
2018-03-20T09:50:45.940Z,69.84
2018-03-20T09:53:14.284Z,71.18
2018-03-20T09:55:42.664Z,70.56
2018-03-20T09:58:11.028Z,69.61
2018-03-20T10:00:39.519Z,69.01
2018-03-20T10:03:07.888Z,68.54
2018-03-20T10:05:36.233Z,68.80
2018-03-20T10:08:04.674Z,67.66
2018-03-20T10:10:33.175Z,64.74
2018-03-20T10:13:01.581Z,65.20
2018-03-20T10:15:29.924Z,65.02
2018-03-20T10:17:58.365Z,65.29
2018-03-20T10:20:26.729Z,61.53
2018-03-20T10:22:55.117Z,61.29
2018-03-20T10:25:23.561Z,65.16
2018-03-20T10:27:51.913Z,62.53
2018-03-20T10:30:20.308Z,62.80
2018-03-20T10:32:48.663Z,63.28
2018-03-20T10:35:17.073Z,65.04
2018-03-20T10:37:46.689Z,64.90
2018-03-20T10:40:15.076Z,63.64
2018-03-20T10:42:43.464Z,63.65
2018-03-20T10:45:11.849Z,60.86
2018-03-20T10:47:40.310Z,60.76
2018-03-20T10:50:08.848Z,60.47
2018-03-20T10:52:37.234Z,62.47
2018-03-20T10:55:05.788Z,63.22
2018-03-20T10:57:34.189Z,61.13
2018-03-20T11:00:02.595Z,58.45
2018-03-20T11:02:31.708Z,57.46
2018-03-20T11:05:00.113Z,57.01
2018-03-20T11:07:28.591Z,57.96
2018-03-20T11:09:57.006Z,58.30
2018-03-20T11:12:25.372Z,59.93
2018-03-20T11:14:53.811Z,60.98
2018-03-20T11:17:22.199Z,60.76
2018-03-20T11:19:50.600Z,60.16
2018-03-20T11:22:19.037Z,59.13
2018-03-20T11:24:47.411Z,60.47
2018-03-20T11:27:15.844Z,62.14
2018-03-20T11:29:44.360Z,63.68
2018-03-20T11:32:12.795Z,62.99
2018-03-20T11:34:41.202Z,62.68
2018-03-20T11:37:09.597Z,62.35
2018-03-20T11:39:38.019Z,60.04
2018-03-20T11:42:06.377Z,60.24
2018-03-20T11:44:34.824Z,62.73
2018-03-20T11:47:03.171Z,64.54
2018-03-20T11:49:31.523Z,62.94
2018-03-20T11:51:59.985Z,61.65
2018-03-20T11:54:28.376Z,58.38
2018-03-20T11:56:56.742Z,58.10
2018-03-20T11:59:25.092Z,59.50
2018-03-20T12:01:53.497Z,59.58
2018-03-20T12:04:21.864Z,60.44
2018-03-20T12:06:52.692Z,59.82
2018-03-20T12:09:32.892Z,59.39
2018-03-20T12:12:01.293Z,59.50
2018-03-20T12:14:29.679Z,60.61
2018-03-20T12:16:58.096Z,63.19
2018-03-20T12:19:26.481Z,60.67
2018-03-20T12:21:54.866Z,62.46
2018-03-20T12:24:23.248Z,62.24
2018-03-20T12:26:51.650Z,61.76
2018-03-20T12:29:20.069Z,61.74
2018-03-20T12:31:48.528Z,63.67
2018-03-20T12:34:16.906Z,62.24
2018-03-20T12:36:45.435Z,61.23
2018-03-20T12:39:13.799Z,58.92
2018-03-20T12:41:42.248Z,59.58
2018-03-20T12:44:10.655Z,59.02
2018-03-20T12:46:39.107Z,57.71
2018-03-20T12:49:07.461Z,58.55
2018-03-20T12:51:35.822Z,58.75
2018-03-20T12:54:04.212Z,57.03
2018-03-20T12:56:32.621Z,56.94
2018-03-20T12:59:01.036Z,56.76
2018-03-20T13:01:29.473Z,53.35
2018-03-20T13:03:57.900Z,51.53
2018-03-20T13:06:26.284Z,48.31
2018-03-20T13:08:54.708Z,44.75
2018-03-20T13:11:23.136Z,40.73
2018-03-20T13:13:51.524Z,42.06
2018-03-20T13:16:19.921Z,42.70
2018-03-20T13:18:48.310Z,41.38
2018-03-20T13:21:16.714Z,38.47
2018-03-20T13:23:45.085Z,40.29
2018-03-20T13:26:13.693Z,42.41
2018-03-20T13:28:42.082Z,47.22
2018-03-20T13:31:10.628Z,46.08
2018-03-20T13:33:39.053Z,42.05
2018-03-20T13:36:07.452Z,39.95
2018-03-20T13:38:35.900Z,39.36
2018-03-20T13:41:04.278Z,43.82
2018-03-20T13:43:32.693Z,50.83
2018-03-20T13:46:01.106Z,54.61
2018-03-20T13:48:30.898Z,56.13
2018-03-20T13:51:01.791Z,57.71
2018-03-20T13:53:30.326Z,57.98
2018-03-20T13:55:58.956Z,57.43
2018-03-20T13:58:27.389Z,56.52
2018-03-20T14:00:55.906Z,54.77
2018-03-20T14:03:24.328Z,55.38
2018-03-20T14:05:52.675Z,56.75
2018-03-20T14:08:21.146Z,58.08
2018-03-20T14:10:49.545Z,59.21
2018-03-20T14:13:18.013Z,60.18
2018-03-20T14:15:46.411Z,61.32
2018-03-20T14:18:14.837Z,63.05
2018-03-20T14:20:43.288Z,64.54
2018-03-20T14:23:11.680Z,66.46
2018-03-20T14:25:40.083Z,68.51
2018-03-20T14:28:08.460Z,69.71
2018-03-20T14:30:36.856Z,70.24
2018-03-20T14:33:05.240Z,70.00
2018-03-20T14:35:33.632Z,71.01
2018-03-20T14:38:02.058Z,74.41
2018-03-20T14:40:30.557Z,74.39
2018-03-20T14:42:58.956Z,73.59
2018-03-20T14:45:27.447Z,75.01
2018-03-20T14:47:55.862Z,75.08
2018-03-20T14:50:24.279Z,74.37
2018-03-20T14:52:52.713Z,74.56
2018-03-20T14:55:21.152Z,74.47
2018-03-20T14:57:49.613Z,74.31
2018-03-20T15:00:18.029Z,74.80
2018-03-20T15:02:46.507Z,75.22
2018-03-20T15:05:14.885Z,74.33
2018-03-20T15:07:43.671Z,73.20
2018-03-20T15:10:12.562Z,73.37
2018-03-20T15:12:41.008Z,75.06
2018-03-20T15:15:09.721Z,75.33
2018-03-20T15:17:39.178Z,76.08
2018-03-20T15:20:09.172Z,75.38
2018-03-20T15:22:38.106Z,76.03
2018-03-20T15:25:06.562Z,76.39
2018-03-20T15:27:34.998Z,75.99
2018-03-20T15:30:03.601Z,76.06
2018-03-20T15:32:32.612Z,76.46
2018-03-20T15:35:01.050Z,76.39
2018-03-20T15:37:29.475Z,77.18
2018-03-20T15:39:57.872Z,77.48
2018-03-20T15:42:26.274Z,76.62
2018-03-20T15:44:54.676Z,75.00
2018-03-20T15:47:23.113Z,75.09
2018-03-20T15:49:51.505Z,75.21
2018-03-20T15:52:19.965Z,74.16
2018-03-20T15:54:48.328Z,74.35
2018-03-20T15:57:16.710Z,73.44
2018-03-20T15:59:45.129Z,75.10
2018-03-20T16:02:13.513Z,75.95
2018-03-20T16:04:41.884Z,76.94
2018-03-20T16:07:10.327Z,77.37
2018-03-20T16:09:38.722Z,79.54
2018-03-20T16:12:07.153Z,81.10
2018-03-20T16:14:35.537Z,81.36
2018-03-20T16:17:03.960Z,82.66
2018-03-20T16:19:32.389Z,82.06
2018-03-20T16:22:00.960Z,80.59
2018-03-20T16:24:29.370Z,81.83
2018-03-20T16:26:57.920Z,82.41
2018-03-20T16:29:26.364Z,81.79
2018-03-20T16:31:54.729Z,82.42
2018-03-20T16:34:23.195Z,82.26
2018-03-20T16:36:51.643Z,82.45
2018-03-20T16:39:20.068Z,82.16
2018-03-20T16:41:48.529Z,82.46
2018-03-20T16:44:16.923Z,82.56
2018-03-20T16:46:45.354Z,82.89
2018-03-20T16:49:13.796Z,83.69
2018-03-20T16:51:42.193Z,84.25
2018-03-20T16:54:10.736Z,84.75
2018-03-20T16:56:39.124Z,85.24
2018-03-20T16:59:07.600Z,85.08
2018-03-20T17:01:36.002Z,85.31
2018-03-20T17:04:04.403Z,84.30
2018-03-20T17:06:32.831Z,83.58
2018-03-20T17:09:01.249Z,83.22
2018-03-20T17:11:29.648Z,82.90
2018-03-20T17:13:58.120Z,83.30
2018-03-20T17:16:26.505Z,83.19
2018-03-20T17:18:54.865Z,83.14
2018-03-20T17:21:23.294Z,82.64
2018-03-20T17:23:51.697Z,82.29
2018-03-20T17:26:20.130Z,82.92
2018-03-20T17:28:48.672Z,82.44
2018-03-20T17:31:17.167Z,82.94
2018-03-20T17:33:45.712Z,83.16
2018-03-20T17:36:14.283Z,82.98
2018-03-20T17:38:42.713Z,83.01
2018-03-20T17:41:11.108Z,82.96
2018-03-20T17:43:39.525Z,83.45
2018-03-20T17:46:07.953Z,83.31
2018-03-20T17:48:36.392Z,82.94
2018-03-20T17:51:04.824Z,82.16
2018-03-20T17:53:33.269Z,82.09
2018-03-20T17:56:01.665Z,82.30
2018-03-20T17:58:30.077Z,82.01
2018-03-20T18:00:58.596Z,84.09
2018-03-20T18:03:27.042Z,85.71
2018-03-20T18:05:55.519Z,85.91
2018-03-20T18:08:23.935Z,86.04
2018-03-20T18:10:52.325Z,86.06
2018-03-20T18:13:20.765Z,86.19
2018-03-20T18:15:49.147Z,86.10
2018-03-20T18:18:17.766Z,85.42
2018-03-20T18:20:46.145Z,84.75
2018-03-20T18:23:14.586Z,84.47
2018-03-20T18:25:43.010Z,84.49
2018-03-20T18:28:11.461Z,83.89
2018-03-20T18:30:39.876Z,83.76
2018-03-20T18:33:08.283Z,83.63
2018-03-20T18:35:36.719Z,83.49
2018-03-20T18:38:05.143Z,83.37
2018-03-20T18:40:33.571Z,83.55
2018-03-20T18:43:02.020Z,83.88
2018-03-20T18:45:30.536Z,84.85
2018-03-20T18:47:58.978Z,84.78
2018-03-20T18:50:27.425Z,84.63
2018-03-20T18:52:55.889Z,84.22
2018-03-20T18:55:24.416Z,84.75
2018-03-20T18:57:52.899Z,84.68
2018-03-20T19:00:21.315Z,83.86
2018-03-20T19:02:49.696Z,84.04
2018-03-20T19:05:18.120Z,84.42
2018-03-20T19:07:46.547Z,84.98
2018-03-20T19:10:14.991Z,85.61
2018-03-20T19:12:43.420Z,85.92
2018-03-20T19:15:11.857Z,84.74
2018-03-20T19:17:40.233Z,84.15
2018-03-20T19:20:08.675Z,83.37
2018-03-20T19:22:37.104Z,83.99
2018-03-20T19:25:05.513Z,84.23
2018-03-20T19:27:34.016Z,84.15
2018-03-20T19:30:02.512Z,84.02
2018-03-20T19:32:31.044Z,84.32
2018-03-20T19:34:59.413Z,84.67
2018-03-20T19:37:27.832Z,84.05
2018-03-20T19:39:56.313Z,83.68
2018-03-20T19:42:24.820Z,83.62
2018-03-20T19:44:53.231Z,84.65
2018-03-20T19:47:21.622Z,84.81
2018-03-20T19:49:50.037Z,85.25
2018-03-20T19:52:18.403Z,85.36
2018-03-20T19:54:46.850Z,84.28
2018-03-20T19:57:15.231Z,84.12
2018-03-20T19:59:43.665Z,84.38
2018-03-20T20:02:12.074Z,84.00
2018-03-20T20:04:40.504Z,84.85
2018-03-20T20:07:08.885Z,85.47
2018-03-20T20:09:37.256Z,85.30
2018-03-20T20:12:05.637Z,84.79
2018-03-20T20:14:34.227Z,83.93
2018-03-20T20:17:02.552Z,84.81
2018-03-20T20:19:30.985Z,83.75
2018-03-20T20:21:59.409Z,83.90
2018-03-20T20:24:27.837Z,83.93
2018-03-20T20:26:56.253Z,83.71
2018-03-20T20:29:24.638Z,83.26
2018-03-20T20:31:53.033Z,83.53
2018-03-20T20:34:21.404Z,83.95
2018-03-20T20:36:49.821Z,84.28
2018-03-20T20:39:18.216Z,84.56
2018-03-20T20:41:46.654Z,84.92
2018-03-20T20:44:15.181Z,86.10
2018-03-20T20:46:43.575Z,85.93
2018-03-20T20:49:11.987Z,85.43
2018-03-20T20:51:40.437Z,84.98
2018-03-20T20:54:09.047Z,84.87
2018-03-20T20:56:37.500Z,84.57
2018-03-20T20:59:05.873Z,84.66
2018-03-20T21:01:34.298Z,84.67
2018-03-20T21:04:02.683Z,84.23
2018-03-20T21:06:31.173Z,84.23
2018-03-20T21:08:59.672Z,84.99
2018-03-20T21:11:28.103Z,85.54
2018-03-20T21:13:56.478Z,84.90
2018-03-20T21:16:24.901Z,84.56
2018-03-20T21:18:53.316Z,84.38
2018-03-20T21:21:21.798Z,84.60
2018-03-20T21:23:50.285Z,84.74
2018-03-20T21:26:18.689Z,84.49
2018-03-20T21:28:47.083Z,84.12
2018-03-20T21:31:15.501Z,83.88
2018-03-20T21:33:43.952Z,84.38
2018-03-20T21:36:12.396Z,84.02
2018-03-20T21:38:40.794Z,83.64
2018-03-20T21:41:09.170Z,83.62
2018-03-20T21:43:37.630Z,84.06
2018-03-20T21:46:06.013Z,83.43
2018-03-20T21:48:34.427Z,83.61
2018-03-20T21:51:02.829Z,84.11
2018-03-20T21:53:31.212Z,83.96
2018-03-20T21:55:59.630Z,83.83
2018-03-20T21:58:28.016Z,84.27
2018-03-20T22:00:56.417Z,84.37
2018-03-20T22:03:24.864Z,83.09
2018-03-20T22:05:53.283Z,83.25
2018-03-20T22:08:22.174Z,83.05
2018-03-20T22:10:50.612Z,82.93
2018-03-20T22:13:19.024Z,82.87
2018-03-20T22:15:47.414Z,84.54
2018-03-20T22:18:15.818Z,84.79
2018-03-20T22:20:44.367Z,83.96
2018-03-20T22:23:12.746Z,83.58
2018-03-20T22:25:41.137Z,84.21
2018-03-20T22:28:09.528Z,83.97
2018-03-20T22:30:37.994Z,83.67
2018-03-20T22:33:06.383Z,83.42
2018-03-20T22:35:34.908Z,84.08
2018-03-20T22:38:03.446Z,84.43
2018-03-20T22:40:31.846Z,84.05
2018-03-20T22:43:00.264Z,84.49
2018-03-20T22:45:28.631Z,84.39
2018-03-20T22:47:56.997Z,84.59
2018-03-20T22:50:25.382Z,84.70
2018-03-20T22:52:53.805Z,84.11
2018-03-20T22:55:22.218Z,83.72
2018-03-20T22:57:50.597Z,83.58
2018-03-20T23:00:29.461Z,83.99
2018-03-20T23:02:57.830Z,84.09
2018-03-20T23:05:26.256Z,83.48
2018-03-20T23:10:52.756Z,84.07
2018-03-20T23:13:21.125Z,84.93
2018-03-20T23:15:49.503Z,84.55
2018-03-20T23:18:17.963Z,84.15
2018-03-20T23:20:46.328Z,84.18
2018-03-20T23:23:14.691Z,83.59
2018-03-20T23:25:43.116Z,83.16
2018-03-20T23:28:11.545Z,82.74
2018-03-20T23:30:39.988Z,83.25
2018-03-20T23:33:08.416Z,83.15
2018-03-20T23:35:36.833Z,82.80
2018-03-20T23:38:05.361Z,82.35
2018-03-20T23:40:33.760Z,82.52
2018-03-20T23:43:02.140Z,82.77
2018-03-20T23:45:30.542Z,82.43
2018-03-20T23:47:58.893Z,82.56
2018-03-20T23:50:27.317Z,82.09
2018-03-20T23:52:55.669Z,83.26
2018-03-20T23:55:24.089Z,84.01
2018-03-20T23:57:52.485Z,83.56
